createdAt,value
2018-08-11T00:00:28.718Z,2.22
2018-08-11T00:01:02.378Z,4.72
2018-08-11T00:01:35.945Z,4.50
2018-08-11T00:02:09.655Z,3.17
2018-08-11T00:02:43.257Z,3.45
2018-08-11T00:03:16.814Z,2.15
2018-08-11T00:03:50.968Z,2.45
2018-08-11T00:04:24.921Z,3.17
2018-08-11T00:04:58.550Z,2.92
2018-08-11T00:05:32.277Z,4.63
2018-08-11T00:06:06.335Z,1.92
2018-08-11T00:06:40.475Z,2.02
2018-08-11T00:07:14.060Z,1.80
2018-08-11T00:07:48.060Z,4.53
2018-08-11T00:08:22.539Z,3.47
2018-08-11T00:08:56.167Z,3.00
2018-08-11T00:09:30.444Z,3.57
2018-08-11T00:10:04.927Z,2.47
2018-08-11T00:10:38.547Z,5.85
2018-08-11T00:11:12.115Z,3.30
2018-08-11T00:11:46.383Z,4.00
2018-08-11T00:12:20.103Z,2.67
2018-08-11T00:12:54.700Z,6.35
2018-08-11T00:13:28.379Z,2.83
2018-08-11T00:14:01.972Z,3.22
2018-08-11T00:14:35.596Z,3.15
2018-08-11T00:15:11.928Z,3.12
2018-08-11T00:15:45.508Z,4.22
2018-08-11T00:16:19.663Z,3.70
2018-08-11T00:16:53.290Z,2.67
2018-08-11T00:17:26.874Z,2.77
2018-08-11T00:18:00.540Z,3.62
2018-08-11T00:18:34.179Z,3.62
2018-08-11T00:19:08.471Z,3.37
2018-08-11T00:19:42.686Z,3.30
2018-08-11T00:20:23.061Z,2.95
2018-08-11T00:20:56.678Z,2.45
2018-08-11T00:21:30.980Z,3.33
2018-08-11T00:22:04.864Z,2.10
2018-08-11T00:22:39.005Z,4.40
2018-08-11T00:23:13.398Z,3.10
2018-08-11T00:23:47.098Z,3.80
2018-08-11T00:24:21.474Z,5.17
2018-08-11T00:24:55.595Z,3.33
2018-08-11T00:25:29.834Z,1.97
2018-08-11T00:26:03.507Z,3.45
2018-08-11T00:26:37.096Z,2.50
2018-08-11T00:27:10.741Z,2.67
2018-08-11T00:27:44.371Z,2.30
2018-08-11T00:28:18.977Z,2.83
2018-08-11T00:28:52.613Z,2.33
2018-08-11T00:29:26.908Z,3.57
2018-08-11T00:30:02.309Z,3.27
2018-08-11T00:30:35.912Z,2.02
2018-08-11T00:31:10.050Z,3.20
2018-08-11T00:31:43.736Z,2.05
2018-08-11T00:32:17.415Z,2.50
2018-08-11T00:32:51.611Z,3.72
2018-08-11T00:33:26.271Z,3.67
2018-08-11T00:34:00.484Z,3.08
2018-08-11T00:34:34.071Z,1.77
2018-08-11T00:35:09.835Z,3.80
2018-08-11T00:35:43.553Z,3.02
2018-08-11T00:36:18.438Z,1.98
2018-08-11T00:36:52.057Z,2.65
2018-08-11T00:37:25.682Z,5.20
2018-08-11T00:37:59.318Z,3.27
2018-08-11T00:38:32.874Z,3.45
2018-08-11T00:39:10.462Z,4.80
2018-08-11T00:39:44.703Z,2.70
2018-08-11T00:40:19.592Z,2.77
2018-08-11T00:40:53.185Z,3.27
2018-08-11T00:41:26.821Z,2.13
2018-08-11T00:42:00.375Z,3.05
2018-08-11T00:42:33.998Z,6.45
2018-08-11T00:43:07.762Z,2.87
2018-08-11T00:43:42.041Z,3.00
2018-08-11T00:44:15.608Z,3.67
2018-08-11T00:44:49.212Z,3.25
2018-08-11T00:45:24.214Z,2.83
2018-08-11T00:45:57.916Z,3.35
2018-08-11T00:46:32.476Z,6.00
2018-08-11T00:47:06.693Z,5.05
2018-08-11T00:47:40.529Z,3.35
2018-08-11T00:48:14.215Z,3.92
2018-08-11T00:48:47.779Z,2.87
2018-08-11T00:49:21.354Z,3.07
2018-08-11T00:49:54.926Z,5.70
2018-08-11T00:50:36.044Z,8.30
2018-08-11T00:51:09.667Z,5.70
2018-08-11T00:51:43.380Z,3.95
2018-08-11T00:52:17.008Z,5.80
2018-08-11T00:52:50.619Z,8.85
2018-08-11T00:53:24.911Z,4.50
2018-08-11T00:53:58.996Z,7.22
2018-08-11T00:54:32.552Z,5.80
2018-08-11T00:55:08.855Z,6.30
2018-08-11T00:55:42.535Z,7.37
2018-08-11T00:56:16.189Z,5.12
2018-08-11T00:56:49.800Z,3.70
2018-08-11T00:57:23.636Z,4.83
2018-08-11T00:57:57.812Z,6.40
2018-08-11T00:58:31.997Z,4.58
2018-08-11T00:59:05.934Z,4.47
2018-08-11T00:59:39.534Z,7.45
2018-08-11T01:00:16.683Z,4.47
2018-08-11T01:00:50.413Z,6.87
2018-08-11T01:01:24.255Z,5.42
2018-08-11T01:01:58.809Z,5.65
2018-08-11T01:02:32.451Z,3.83
2018-08-11T01:03:06.236Z,5.87
2018-08-11T01:03:39.840Z,5.40
2018-08-11T01:04:13.532Z,7.03
2018-08-11T01:04:47.128Z,7.28
2018-08-11T01:05:21.850Z,5.03
2018-08-11T01:05:56.103Z,4.55
2018-08-11T01:06:29.620Z,5.85
2018-08-11T01:07:04.070Z,4.17
2018-08-11T01:07:37.980Z,4.80
2018-08-11T01:08:12.488Z,6.85
2018-08-11T01:08:46.061Z,8.53
2018-08-11T01:09:19.698Z,7.77
2018-08-11T01:09:53.994Z,5.45
2018-08-11T01:10:28.265Z,4.47
2018-08-11T01:11:02.021Z,6.92
2018-08-11T01:11:35.716Z,6.03
2018-08-11T01:12:10.052Z,8.55
2018-08-11T01:12:44.485Z,4.33
2018-08-11T01:13:18.735Z,4.30
2018-08-11T01:13:52.706Z,6.40
2018-08-11T01:14:27.142Z,6.33
2018-08-11T01:15:01.347Z,6.30
2018-08-11T01:15:34.907Z,6.45
2018-08-11T01:16:08.630Z,6.50
2018-08-11T01:16:42.590Z,5.30
2018-08-11T01:17:16.178Z,5.80
2018-08-11T01:17:50.774Z,4.65
2018-08-11T01:18:24.407Z,6.87
2018-08-11T01:18:58.909Z,4.00
2018-08-11T01:19:32.472Z,7.03
2018-08-11T01:20:08.004Z,4.17
2018-08-11T01:20:41.612Z,5.33
2018-08-11T01:21:16.100Z,3.72
2018-08-11T01:21:49.661Z,4.12
2018-08-11T01:22:23.207Z,3.10
2018-08-11T01:22:56.814Z,3.75
2018-08-11T01:23:30.441Z,2.43
2018-08-11T01:24:04.177Z,3.87
2018-08-11T01:24:37.723Z,2.62
2018-08-11T01:25:12.307Z,3.72
2018-08-11T01:25:45.925Z,3.80
2018-08-11T01:26:19.546Z,3.50
2018-08-11T01:26:53.319Z,3.50
2018-08-11T01:27:28.122Z,2.80
2018-08-11T01:28:01.719Z,3.02
2018-08-11T01:28:35.291Z,2.80
2018-08-11T01:29:09.615Z,2.87
2018-08-11T01:29:43.977Z,2.60
2018-08-11T01:30:19.735Z,2.92
2018-08-11T01:30:53.427Z,4.00
2018-08-11T01:31:27.126Z,4.67
2018-08-11T01:32:01.491Z,4.42
2018-08-11T01:32:35.724Z,3.22
2018-08-11T01:33:09.274Z,5.45
2018-08-11T01:33:43.327Z,6.33
2018-08-11T01:34:16.955Z,6.12
2018-08-11T01:34:51.819Z,5.28
2018-08-11T01:35:25.883Z,7.10
2018-08-11T01:35:59.467Z,5.03
2018-08-11T01:36:33.041Z,2.65
2018-08-11T01:37:06.672Z,6.28
2018-08-11T01:37:41.233Z,4.72
2018-08-11T01:38:14.808Z,3.87
2018-08-11T01:38:48.417Z,4.72
2018-08-11T01:39:22.020Z,4.20
2018-08-11T01:39:55.634Z,4.42
2018-08-11T01:40:29.360Z,3.35
2018-08-11T01:41:02.943Z,4.60
2018-08-11T01:41:36.519Z,6.22
2018-08-11T01:42:11.262Z,5.37
2018-08-11T01:42:46.641Z,5.85
2018-08-11T01:43:20.235Z,3.27
2018-08-11T01:43:53.790Z,4.22
2018-08-11T01:44:27.427Z,2.17
2018-08-11T01:45:01.869Z,4.33
2018-08-11T01:45:36.190Z,1.87
2018-08-11T01:46:10.520Z,3.52
2018-08-11T01:46:44.127Z,2.17
2018-08-11T01:47:17.700Z,2.12
2018-08-11T01:47:51.924Z,2.33
2018-08-11T01:48:26.908Z,2.62
2018-08-11T01:49:00.949Z,2.25
2018-08-11T01:49:34.613Z,2.50
2018-08-11T01:50:09.841Z,3.42
2018-08-11T01:50:43.410Z,2.33
2018-08-11T01:51:16.912Z,1.90
2018-08-11T01:51:50.498Z,2.33
2018-08-11T01:52:24.088Z,2.95
2018-08-11T01:52:57.677Z,1.70
2018-08-11T01:53:31.747Z,2.60
2018-08-11T01:54:05.454Z,2.08
2018-08-11T01:54:39.448Z,2.33
2018-08-11T01:55:15.208Z,2.02
2018-08-11T01:55:49.716Z,3.02
2018-08-11T01:56:23.273Z,1.82
2018-08-11T01:56:56.894Z,2.45
2018-08-11T01:57:30.536Z,3.17
2018-08-11T01:58:04.170Z,2.15
2018-08-11T01:58:37.773Z,2.22
2018-08-11T01:59:11.337Z,1.15
2018-08-11T01:59:44.848Z,4.55
2018-08-11T02:00:21.558Z,1.98
2018-08-11T02:00:55.268Z,2.25
2018-08-11T02:01:28.898Z,2.33
2018-08-11T02:02:03.053Z,1.67
2018-08-11T02:02:36.880Z,1.92
2018-08-11T02:03:10.408Z,2.10
2018-08-11T02:03:44.012Z,2.12
2018-08-11T02:04:18.276Z,1.32
2018-08-11T02:04:51.909Z,1.60
2018-08-11T02:05:25.563Z,2.60
2018-08-11T02:05:59.083Z,1.80
2018-08-11T02:06:33.936Z,2.67
2018-08-11T02:07:07.609Z,1.72
2018-08-11T02:07:42.602Z,4.28
2018-08-11T02:08:16.117Z,3.72
2018-08-11T02:08:49.627Z,3.12
2018-08-11T02:09:23.270Z,2.67
2018-08-11T02:09:57.032Z,2.75
2018-08-11T02:10:30.644Z,2.90
2018-08-11T02:11:04.319Z,3.95
2018-08-11T02:11:37.923Z,6.05
2018-08-11T02:12:11.647Z,4.35
2018-08-11T02:12:45.844Z,4.35
2018-08-11T02:13:19.441Z,4.43
2018-08-11T02:13:53.505Z,4.25
2018-08-11T02:14:27.514Z,3.92
2018-08-11T02:15:01.145Z,3.85
2018-08-11T02:15:34.773Z,4.22
2018-08-11T02:16:09.081Z,5.08
2018-08-11T02:16:43.384Z,4.15
2018-08-11T02:17:17.780Z,4.65
2018-08-11T02:17:51.423Z,4.17
2018-08-11T02:18:24.960Z,5.28
2018-08-11T02:18:58.489Z,4.17
2018-08-11T02:19:32.395Z,2.50
2018-08-11T02:20:08.668Z,3.58
2018-08-11T02:20:42.728Z,3.02
2018-08-11T02:21:17.027Z,3.02
2018-08-11T02:21:50.645Z,2.90
2018-08-11T02:22:24.310Z,1.92
2018-08-11T02:22:58.522Z,2.80
2018-08-11T02:23:32.832Z,2.40
2018-08-11T02:24:07.423Z,3.27
2018-08-11T02:24:40.963Z,1.42
2018-08-11T02:25:15.398Z,3.72
2018-08-11T02:25:48.977Z,2.45
2018-08-11T02:26:23.682Z,2.35
2018-08-11T02:26:57.310Z,2.15
2018-08-11T02:27:32.109Z,2.33
2018-08-11T02:28:06.237Z,1.17
2018-08-11T02:28:39.941Z,1.80
2018-08-11T02:29:14.026Z,2.10
2018-08-11T02:29:47.587Z,1.87
2018-08-11T02:30:22.697Z,1.30
2018-08-11T02:30:56.317Z,1.85
2018-08-11T02:31:30.664Z,1.77
2018-08-11T02:32:04.354Z,2.02
2018-08-11T02:32:38.304Z,0.95
2018-08-11T02:33:11.902Z,1.20
2018-08-11T02:33:45.434Z,1.55
2018-08-11T02:34:19.867Z,1.22
2018-08-11T02:34:53.726Z,1.05
2018-08-11T02:35:29.124Z,2.03
2018-08-11T02:36:02.729Z,1.75
2018-08-11T02:36:36.361Z,1.80
2018-08-11T02:37:09.915Z,1.02
2018-08-11T02:37:44.142Z,1.05
2018-08-11T02:38:17.773Z,1.95
2018-08-11T02:38:51.370Z,1.60
2018-08-11T02:39:25.556Z,1.23
2018-08-11T02:39:59.187Z,1.82
2018-08-11T02:40:32.801Z,1.55
2018-08-11T02:41:06.452Z,1.72
2018-08-11T02:41:40.135Z,3.75
2018-08-11T02:42:13.997Z,2.55
2018-08-11T02:42:47.610Z,1.35
2018-08-11T02:43:21.247Z,1.37
2018-08-11T02:43:54.775Z,1.20
2018-08-11T02:44:28.425Z,3.83
2018-08-11T02:45:02.000Z,2.50
2018-08-11T02:45:36.611Z,1.02
2018-08-11T02:46:10.203Z,1.10
2018-08-11T02:46:43.819Z,1.85
2018-08-11T02:47:17.436Z,1.50
2018-08-11T02:47:51.068Z,1.60
2018-08-11T02:48:24.696Z,2.47
2018-08-11T02:48:58.328Z,1.55
2018-08-11T02:49:32.452Z,2.05
2018-08-11T02:50:07.545Z,2.30
2018-08-11T02:50:42.344Z,1.00
2018-08-11T02:51:16.603Z,0.70
2018-08-11T02:51:50.155Z,1.30
2018-08-11T02:52:23.711Z,1.22
2018-08-11T02:52:57.364Z,1.42
2018-08-11T02:53:30.956Z,2.67
2018-08-11T02:54:05.246Z,1.27
2018-08-11T02:54:38.950Z,1.87
2018-08-11T02:55:13.581Z,1.45
2018-08-11T02:55:47.170Z,2.20
2018-08-11T02:56:20.876Z,1.92
2018-08-11T02:56:55.446Z,1.20
2018-08-11T02:57:29.548Z,2.60
2018-08-11T02:58:03.131Z,1.50
2018-08-11T02:58:36.925Z,1.10
2018-08-11T02:59:10.614Z,2.30
2018-08-11T02:59:44.253Z,1.27
2018-08-11T03:00:18.302Z,1.72
2018-08-11T03:00:51.865Z,1.22
2018-08-11T03:01:25.456Z,1.10
2018-08-11T03:01:59.036Z,0.95
2018-08-11T03:02:32.669Z,2.08
2018-08-11T03:03:06.268Z,0.93
2018-08-11T03:03:39.885Z,2.37
2018-08-11T03:04:13.528Z,1.62
2018-08-11T03:04:47.209Z,2.98
2018-08-11T03:05:20.795Z,1.07
2018-08-11T03:05:55.076Z,3.77
2018-08-11T03:06:29.507Z,1.65
2018-08-11T03:07:03.517Z,1.77
2018-08-11T03:07:37.857Z,1.40
2018-08-11T03:08:11.553Z,2.47
2018-08-11T03:08:45.713Z,1.57
2018-08-11T03:09:19.216Z,2.23
2018-08-11T03:09:53.438Z,2.30
2018-08-11T03:10:27.805Z,1.95
2018-08-11T03:11:02.085Z,0.78
2018-08-11T03:11:35.978Z,3.92
2018-08-11T03:12:09.941Z,1.80
2018-08-11T03:12:43.522Z,1.00
2018-08-11T03:13:18.288Z,1.90
2018-08-11T03:13:52.382Z,1.98
2018-08-11T03:14:25.982Z,2.70
2018-08-11T03:15:00.625Z,0.95
2018-08-11T03:15:34.470Z,2.15
2018-08-11T03:16:08.088Z,1.82
2018-08-11T03:16:42.511Z,1.62
2018-08-11T03:17:16.704Z,1.62
2018-08-11T03:17:50.341Z,1.87
2018-08-11T03:18:24.894Z,1.15
2018-08-11T03:18:58.712Z,2.15
2018-08-11T03:19:32.808Z,0.77
2018-08-11T03:20:10.264Z,1.37
2018-08-11T03:20:45.351Z,1.45
2018-08-11T03:21:19.594Z,2.05
2018-08-11T03:21:53.224Z,2.12
2018-08-11T03:22:26.840Z,1.70
2018-08-11T03:23:01.132Z,1.12
2018-08-11T03:23:36.229Z,1.52
2018-08-11T03:24:10.401Z,2.00
2018-08-11T03:24:44.060Z,1.50
2018-08-11T03:25:17.628Z,3.10
2018-08-11T03:25:51.646Z,1.62
2018-08-11T03:26:25.213Z,0.90
2018-08-11T03:26:59.513Z,2.85
2018-08-11T03:27:33.173Z,0.82
2018-08-11T03:28:06.848Z,1.50
2018-08-11T03:28:40.493Z,2.60
2018-08-11T03:29:14.086Z,2.02
2018-08-11T03:29:47.636Z,1.77
2018-08-11T03:30:21.211Z,1.22
2018-08-11T03:30:55.556Z,1.25
2018-08-11T03:31:30.224Z,1.57
2018-08-11T03:32:03.900Z,1.20
2018-08-11T03:32:38.215Z,2.45
2018-08-11T03:33:12.696Z,1.60
2018-08-11T03:33:46.280Z,2.40
2018-08-11T03:34:19.849Z,1.87
2018-08-11T03:34:53.425Z,1.27
2018-08-11T03:35:27.090Z,1.57
2018-08-11T03:36:00.724Z,1.87
2018-08-11T03:36:34.320Z,2.08
2018-08-11T03:37:07.927Z,2.58
2018-08-11T03:37:42.376Z,2.62
2018-08-11T03:38:15.969Z,1.10
2018-08-11T03:38:49.592Z,3.87
2018-08-11T03:39:23.096Z,1.47
2018-08-11T03:39:56.746Z,2.60
2018-08-11T03:40:30.295Z,3.72
2018-08-11T03:41:03.942Z,1.42
2018-08-11T03:41:38.575Z,1.75
2018-08-11T03:42:12.164Z,1.17
2018-08-11T03:42:45.715Z,1.20
2018-08-11T03:43:19.337Z,1.27
2018-08-11T03:43:53.082Z,1.70
2018-08-11T03:44:27.254Z,3.15
2018-08-11T03:45:01.095Z,2.00
2018-08-11T03:45:35.340Z,2.40
2018-08-11T03:46:09.390Z,2.02
2018-08-11T03:46:43.033Z,1.72
2018-08-11T03:47:16.737Z,1.92
2018-08-11T03:47:50.927Z,1.32
2018-08-11T03:48:24.467Z,1.62
2018-08-11T03:48:58.762Z,1.87
2018-08-11T03:49:32.419Z,1.97
2018-08-11T03:50:06.449Z,1.98
2018-08-11T03:50:40.595Z,2.47
2018-08-11T03:51:14.191Z,3.42
2018-08-11T03:51:47.744Z,1.57
2018-08-11T03:52:21.945Z,1.20
2018-08-11T03:52:55.540Z,2.00
2018-08-11T03:53:29.152Z,1.65
2018-08-11T03:54:02.725Z,2.50
2018-08-11T03:54:36.738Z,2.85
2018-08-11T03:55:10.374Z,1.52
2018-08-11T03:55:43.949Z,2.87
2018-08-11T03:56:17.551Z,2.83
2018-08-11T03:56:51.399Z,2.40
2018-08-11T03:57:24.972Z,1.50
2018-08-11T03:57:59.020Z,2.90
2018-08-11T03:58:32.575Z,2.02
2018-08-11T03:59:06.705Z,4.10
2018-08-11T03:59:40.338Z,3.05
2018-08-11T04:00:14.638Z,1.98
2018-08-11T04:00:48.283Z,2.30
2018-08-11T04:01:21.891Z,2.63
2018-08-11T04:01:55.513Z,2.08
2018-08-11T04:02:30.351Z,2.10
2018-08-11T04:03:04.013Z,2.50
2018-08-11T04:03:38.350Z,2.20
2018-08-11T04:04:11.970Z,2.10
2018-08-11T04:04:45.552Z,2.02
2018-08-11T04:05:19.143Z,2.33
2018-08-11T04:05:53.334Z,2.65
2018-08-11T04:06:27.006Z,3.15
2018-08-11T04:07:00.567Z,3.60
2018-08-11T04:07:34.157Z,3.27
2018-08-11T04:08:07.774Z,1.47
2018-08-11T04:08:42.116Z,4.70
2018-08-11T04:09:15.685Z,4.12
2018-08-11T04:09:49.268Z,1.37
2018-08-11T04:10:24.109Z,2.83
2018-08-11T04:10:59.030Z,3.08
2018-08-11T04:11:32.605Z,4.63
2018-08-11T04:12:06.694Z,2.98
2018-08-11T04:12:40.309Z,2.62
2018-08-11T04:13:14.080Z,2.54
2018-08-11T04:13:47.822Z,3.55
2018-08-11T04:14:22.016Z,2.80
2018-08-11T04:14:55.604Z,2.42
2018-08-11T04:15:29.156Z,1.83
2018-08-11T04:16:02.736Z,3.08
2018-08-11T04:16:36.328Z,2.47
2018-08-11T04:17:10.674Z,5.83
2018-08-11T04:17:44.952Z,2.00
2018-08-11T04:18:18.515Z,3.58
2018-08-11T04:18:53.153Z,2.20
2018-08-11T04:19:27.356Z,3.73
2018-08-11T04:20:01.013Z,2.98
2018-08-11T04:20:34.552Z,2.52
2018-08-11T04:21:08.113Z,2.17
2018-08-11T04:21:41.799Z,1.82
2018-08-11T04:22:15.429Z,3.92
2018-08-11T04:22:48.955Z,3.72
2018-08-11T04:23:22.491Z,1.90
2018-08-11T04:23:56.047Z,2.62
2018-08-11T04:24:31.033Z,5.42
2018-08-11T04:25:05.532Z,4.78
2018-08-11T04:25:39.144Z,5.83
2018-08-11T04:26:13.288Z,3.22
2018-08-11T04:26:47.207Z,3.30
2018-08-11T04:27:20.771Z,3.85
2018-08-11T04:27:55.016Z,3.83
2018-08-11T04:28:28.779Z,3.42
2018-08-11T04:29:02.327Z,2.75
2018-08-11T04:29:35.940Z,3.65
2018-08-11T04:30:11.339Z,3.77
2018-08-11T04:30:44.950Z,2.33
2018-08-11T04:31:18.534Z,4.35
2018-08-11T04:31:53.123Z,2.45
2018-08-11T04:32:27.205Z,2.52
2018-08-11T04:33:01.292Z,3.10
2018-08-11T04:33:35.248Z,2.75
2018-08-11T04:34:08.887Z,2.77
2018-08-11T04:34:43.998Z,3.08
2018-08-11T04:35:17.546Z,3.50
2018-08-11T04:35:51.119Z,2.05
2018-08-11T04:36:25.302Z,2.20
2018-08-11T04:36:59.590Z,5.17
2018-08-11T04:37:33.194Z,3.10
2018-08-11T04:38:06.832Z,4.97
2018-08-11T04:38:40.423Z,4.55
2018-08-11T04:39:13.997Z,3.87
2018-08-11T04:39:48.448Z,3.12
2018-08-11T04:40:22.120Z,4.05
2018-08-11T04:40:56.348Z,3.30
2018-08-11T04:41:30.477Z,2.87
2018-08-11T04:42:04.730Z,2.27
2018-08-11T04:42:38.375Z,3.67
2018-08-11T04:43:12.672Z,2.95
2018-08-11T04:43:46.723Z,2.80
2018-08-11T04:44:20.355Z,4.03
2018-08-11T04:44:53.949Z,4.12
2018-08-11T04:45:27.566Z,2.40
2018-08-11T04:46:02.041Z,3.25
2018-08-11T04:46:36.313Z,3.52
2018-08-11T04:47:10.586Z,4.35
2018-08-11T04:47:44.272Z,4.62
2018-08-11T04:48:17.883Z,4.62
2018-08-11T04:48:51.438Z,4.60
2018-08-11T04:49:25.023Z,5.03
2018-08-11T04:50:00.164Z,3.67
2018-08-11T04:50:33.783Z,3.77
2018-08-11T04:51:07.339Z,5.95
2018-08-11T04:51:40.922Z,6.53
2018-08-11T04:52:14.531Z,4.87
2018-08-11T04:52:48.720Z,2.90
2018-08-11T04:53:22.302Z,2.70
2018-08-11T04:53:55.871Z,3.33
2018-08-11T04:54:29.503Z,3.50
2018-08-11T04:55:04.940Z,5.50
2018-08-11T04:55:38.522Z,4.03
2018-08-11T04:56:12.899Z,2.50
2018-08-11T04:56:46.986Z,3.72
2018-08-11T04:57:21.200Z,3.67
2018-08-11T04:57:55.495Z,3.70
2018-08-11T04:58:29.119Z,4.90
2018-08-11T04:59:06.252Z,3.12
2018-08-11T04:59:40.000Z,4.78
2018-08-11T05:00:14.227Z,2.67
2018-08-11T05:00:47.898Z,6.03
2018-08-11T05:01:21.451Z,2.87
2018-08-11T05:01:55.027Z,2.60
2018-08-11T05:02:28.665Z,3.72
2018-08-11T05:03:02.216Z,4.42
2018-08-11T05:03:37.239Z,4.30
2018-08-11T05:04:10.909Z,4.80
2018-08-11T05:04:45.093Z,3.02
2018-08-11T05:05:19.228Z,6.35
2018-08-11T05:05:52.920Z,4.37
2018-08-11T05:06:26.496Z,3.72
2018-08-11T05:07:00.563Z,3.12
2018-08-11T05:07:34.072Z,3.90
2018-08-11T05:08:07.667Z,5.65
2018-08-11T05:08:41.483Z,5.40
2018-08-11T05:09:15.144Z,4.97
2018-08-11T05:09:48.763Z,3.58
2018-08-11T05:10:22.774Z,3.98
2018-08-11T05:10:57.827Z,4.95
2018-08-11T05:11:31.398Z,4.07
2018-08-11T05:12:05.926Z,3.62
2018-08-11T05:12:39.484Z,4.05
2018-08-11T05:13:13.971Z,5.40
2018-08-11T05:13:48.604Z,5.10
2018-08-11T05:14:22.313Z,5.00
2018-08-11T05:14:55.862Z,7.03
2018-08-11T05:15:29.862Z,6.40
2018-08-11T05:16:03.489Z,4.92
2018-08-11T05:16:37.233Z,3.58
2018-08-11T05:17:11.792Z,5.45
2018-08-11T05:17:45.465Z,6.12
2018-08-11T05:18:19.931Z,3.95
2018-08-11T05:18:53.826Z,6.10
2018-08-11T05:19:27.473Z,6.03
2018-08-11T05:20:01.425Z,6.12
2018-08-11T05:20:35.580Z,5.12
2018-08-11T05:21:10.471Z,4.78
2018-08-11T05:21:44.069Z,6.08
2018-08-11T05:22:17.990Z,5.42
2018-08-11T05:22:51.576Z,6.25
2018-08-11T05:23:25.762Z,3.93
2018-08-11T05:23:59.299Z,4.70
2018-08-11T05:24:34.321Z,4.75
2018-08-11T05:25:10.041Z,5.47
2018-08-11T05:25:43.647Z,5.25
2018-08-11T05:26:17.706Z,3.77
2018-08-11T05:26:51.604Z,5.67
2018-08-11T05:27:25.165Z,3.77
2018-08-11T05:27:59.070Z,6.00
2018-08-11T05:28:33.151Z,6.35
2018-08-11T05:29:06.740Z,4.92
2018-08-11T05:29:40.335Z,5.97
2018-08-11T05:30:14.663Z,6.22
2018-08-11T05:30:49.620Z,6.00
2018-08-11T05:31:24.599Z,6.33
2018-08-11T05:31:58.123Z,3.87
2018-08-11T05:32:32.176Z,4.55
2018-08-11T05:33:06.285Z,7.35
2018-08-11T05:33:39.879Z,4.30
2018-08-11T05:34:14.117Z,6.20
2018-08-11T05:34:48.355Z,4.75
2018-08-11T05:35:22.239Z,6.35
2018-08-11T05:35:55.835Z,5.08
2018-08-11T05:36:29.431Z,6.05
2018-08-11T05:37:02.994Z,7.30
2018-08-11T05:37:36.872Z,5.45
2018-08-11T05:38:11.180Z,6.20
2018-08-11T05:38:45.508Z,3.98
2018-08-11T05:39:19.080Z,5.30
2018-08-11T05:39:52.685Z,4.58
2018-08-11T05:40:26.865Z,6.03
2018-08-11T05:41:00.512Z,6.08
2018-08-11T05:41:34.657Z,6.90
2018-08-11T05:42:08.268Z,6.05
2018-08-11T05:42:41.868Z,5.92
2018-08-11T05:43:15.476Z,4.95
2018-08-11T05:43:49.055Z,4.75
2018-08-11T05:44:22.588Z,5.10
2018-08-11T05:44:56.135Z,5.15
2018-08-11T05:45:29.713Z,12.13
2018-08-11T05:46:03.919Z,5.75
2018-08-11T05:46:37.938Z,5.78
2018-08-11T05:47:11.627Z,6.90
2018-08-11T05:47:45.967Z,6.78
2018-08-11T05:48:20.199Z,7.67
2018-08-11T05:48:54.724Z,8.73
2018-08-11T05:49:28.324Z,6.40
2018-08-11T05:50:01.905Z,6.30
2018-08-11T05:50:35.452Z,7.42
2018-08-11T05:51:09.063Z,7.17
2018-08-11T05:51:42.630Z,6.97
2018-08-11T05:52:16.203Z,5.65
2018-08-11T05:52:49.903Z,3.87
2018-08-11T05:53:24.247Z,9.37
2018-08-11T05:53:58.122Z,7.50
2018-08-11T05:54:31.760Z,5.87
2018-08-11T05:55:06.223Z,7.72
2018-08-11T05:55:39.999Z,7.65
2018-08-11T05:56:13.558Z,7.45
2018-08-11T05:56:47.829Z,6.25
2018-08-11T05:57:22.134Z,6.50
2018-08-11T05:57:55.731Z,8.25
2018-08-11T05:58:29.881Z,5.75
2018-08-11T05:59:03.524Z,6.25
2018-08-11T05:59:37.146Z,6.20
2018-08-11T06:00:11.232Z,6.70
2018-08-11T06:00:44.778Z,8.60
2018-08-11T06:01:18.367Z,6.17
2018-08-11T06:01:51.921Z,6.83
2018-08-11T06:02:25.523Z,7.85
2018-08-11T06:02:59.116Z,7.12
2018-08-11T06:03:32.907Z,7.92
2018-08-11T06:04:06.659Z,6.47
2018-08-11T06:04:40.490Z,7.95
2018-08-11T06:05:14.217Z,6.94
2018-08-11T06:05:47.827Z,7.72
2018-08-11T06:06:21.434Z,7.05
2018-08-11T06:06:56.148Z,6.37
2018-08-11T06:07:29.782Z,8.48
2018-08-11T06:08:04.159Z,5.92
2018-08-11T06:08:37.806Z,7.15
2018-08-11T06:09:12.352Z,5.33
2018-08-11T06:09:46.930Z,6.67
2018-08-11T06:10:20.649Z,5.95
2018-08-11T06:10:54.309Z,5.95
2018-08-11T06:11:29.091Z,6.50
2018-08-11T06:12:02.641Z,7.67
2018-08-11T06:12:36.603Z,5.80
2018-08-11T06:13:10.179Z,9.33
2018-08-11T06:13:43.749Z,8.15
2018-08-11T06:14:17.282Z,5.65
2018-08-11T06:14:51.169Z,5.87
2018-08-11T06:15:24.797Z,7.47
2018-08-11T06:15:59.053Z,6.47
2018-08-11T06:16:33.448Z,8.55
2018-08-11T06:17:07.621Z,6.03
2018-08-11T06:17:41.820Z,6.15
2018-08-11T06:18:15.512Z,7.67
2018-08-11T06:18:49.860Z,5.78
2018-08-11T06:19:23.957Z,5.13
2018-08-11T06:19:57.522Z,7.37
2018-08-11T06:20:31.090Z,6.35
2018-08-11T06:21:04.693Z,6.60
2018-08-11T06:21:39.217Z,6.25
2018-08-11T06:22:13.080Z,6.95
2018-08-11T06:22:47.465Z,6.58
2018-08-11T06:23:21.060Z,9.37
2018-08-11T06:23:55.434Z,7.00
2018-08-11T06:24:29.049Z,5.90
2018-08-11T06:25:02.642Z,6.28
2018-08-11T06:25:37.738Z,9.13
2018-08-11T06:26:11.512Z,5.00
2018-08-11T06:26:45.228Z,7.40
2018-08-11T06:27:18.783Z,6.50
2018-08-11T06:27:52.489Z,8.05
2018-08-11T06:28:26.987Z,6.50
2018-08-11T06:29:00.666Z,6.30
2018-08-11T06:29:34.214Z,6.37
2018-08-11T06:30:09.497Z,6.28
2018-08-11T06:30:43.092Z,7.80
2018-08-11T06:31:16.773Z,6.47
2018-08-11T06:31:51.759Z,6.65
2018-08-11T06:32:25.945Z,6.28
2018-08-11T06:33:00.115Z,6.75
2018-08-11T06:33:33.717Z,6.20
2018-08-11T06:34:07.363Z,6.05
2018-08-11T06:34:41.658Z,8.25
2018-08-11T06:35:15.201Z,7.25
2018-08-11T06:35:48.815Z,9.18
2018-08-11T06:36:22.391Z,9.53
2018-08-11T06:36:56.467Z,10.70
2018-08-11T06:37:30.069Z,7.83
2018-08-11T06:38:04.410Z,8.80
2018-08-11T06:38:37.922Z,7.60
2018-08-11T06:39:14.607Z,6.50
2018-08-11T06:39:48.272Z,7.45
2018-08-11T06:40:21.872Z,6.50
2018-08-11T06:40:56.229Z,7.53
2018-08-11T06:41:29.709Z,7.40
2018-08-11T06:42:03.321Z,7.35
2018-08-11T06:42:36.995Z,6.60
2018-08-11T06:43:10.576Z,8.03
2018-08-11T06:43:44.192Z,8.15
2018-08-11T06:44:18.634Z,5.22
2018-08-11T06:44:52.584Z,6.47
2018-08-11T06:45:26.202Z,7.67
2018-08-11T06:46:01.081Z,4.70
2018-08-11T06:46:34.756Z,6.17
2018-08-11T06:47:08.714Z,5.00
2018-08-11T06:47:42.343Z,7.10
2018-08-11T06:48:15.906Z,5.42
2018-08-11T06:48:50.988Z,7.47
2018-08-11T06:49:24.578Z,8.43
2018-08-11T06:49:58.268Z,7.17
2018-08-11T06:50:31.851Z,5.58
2018-08-11T06:51:05.439Z,9.88
2018-08-11T06:51:39.028Z,6.60
2018-08-11T06:52:15.692Z,6.08
2018-08-11T06:52:49.462Z,6.00
2018-08-11T06:53:24.481Z,6.33
2018-08-11T06:53:58.700Z,6.87
2018-08-11T06:54:32.267Z,8.90
2018-08-11T06:55:08.012Z,6.72
2018-08-11T06:55:48.572Z,6.42
2018-08-11T06:56:22.220Z,6.47
2018-08-11T06:56:55.884Z,8.08
2018-08-11T06:57:29.624Z,9.87
2018-08-11T06:58:03.139Z,6.83
2018-08-11T06:58:36.828Z,6.33
2018-08-11T06:59:14.762Z,7.03
2018-08-11T06:59:48.362Z,6.05
2018-08-11T07:00:22.078Z,6.97
2018-08-11T07:00:57.417Z,6.90
2018-08-11T07:01:31.614Z,6.83
2018-08-11T07:02:05.625Z,8.45
2018-08-11T07:02:39.180Z,8.30
2018-08-11T07:03:13.771Z,6.00
2018-08-11T07:03:47.356Z,6.58
2018-08-11T07:04:20.936Z,9.03
2018-08-11T07:04:54.560Z,7.83
2018-08-11T07:05:29.081Z,7.47
2018-08-11T07:06:02.630Z,7.83
2018-08-11T07:06:36.262Z,4.20
2018-08-11T07:07:10.432Z,4.53
2018-08-11T07:07:44.150Z,5.92
2018-08-11T07:08:19.484Z,4.95
2018-08-11T07:08:53.124Z,6.20
2018-08-11T07:09:27.355Z,7.83
2018-08-11T07:10:00.910Z,6.80
2018-08-11T07:10:35.363Z,7.47
2018-08-11T07:11:09.018Z,5.50
2018-08-11T07:11:43.213Z,5.40
2018-08-11T07:12:16.811Z,7.78
2018-08-11T07:12:50.413Z,9.28
2018-08-11T07:13:24.248Z,6.73
2018-08-11T07:13:58.461Z,8.43
2018-08-11T07:14:32.028Z,4.20
2018-08-11T07:15:06.323Z,6.50
2018-08-11T07:15:39.925Z,7.62
2018-08-11T07:16:14.796Z,7.92
2018-08-11T07:16:48.352Z,6.08
2018-08-11T07:17:21.939Z,6.70
2018-08-11T07:17:55.616Z,7.65
2018-08-11T07:18:30.581Z,6.35
2018-08-11T07:19:04.950Z,10.63
2018-08-11T07:19:39.393Z,5.67
2018-08-11T07:20:14.161Z,6.53
2018-08-11T07:20:48.296Z,6.92
2018-08-11T07:21:22.710Z,6.80
2018-08-11T07:21:56.253Z,7.75
2018-08-11T07:22:29.844Z,5.00
2018-08-11T07:23:05.080Z,5.92
2018-08-11T07:23:38.843Z,5.12
2018-08-11T07:24:16.191Z,4.60
2018-08-11T07:24:50.659Z,8.70
2018-08-11T07:25:24.227Z,5.13
2018-08-11T07:25:59.137Z,7.17
2018-08-11T07:26:33.023Z,7.33
2018-08-11T07:27:06.679Z,4.42
2018-08-11T07:27:40.735Z,7.75
2018-08-11T07:28:14.297Z,6.62
2018-08-11T07:28:47.939Z,7.33
2018-08-11T07:29:21.749Z,7.17
2018-08-11T07:29:55.392Z,7.53
2018-08-11T07:30:30.435Z,6.33
2018-08-11T07:31:04.651Z,9.58
2018-08-11T07:31:38.299Z,7.58
2018-08-11T07:32:11.993Z,6.37
2018-08-11T07:32:46.830Z,6.33